sensor_id;sensor_type;location;lat;lon;timestamp;P1;durP1;ratioP1;P2;durP2;ratioP2
2486;SDS011;1254;49.144;8.212;2024-01-11T00:00:48;40.53;;;21.48;;
2486;SDS011;1254;49.144;8.212;2024-01-11T00:03:17;43.88;;;21.13;;
2486;SDS011;1254;49.144;8.212;2024-01-11T00:05:45;32.50;;;20.25;;
2486;SDS011;1254;49.144;8.212;2024-01-11T00:08:13;32.08;;;19.95;;
2486;SDS011;1254;49.144;8.212;2024-01-11T00:10:43;41.42;;;21.88;;
2486;SDS011;1254;49.144;8.212;2024-01-11T00:13:11;38.15;;;21.58;;
2486;SDS011;1254;49.144;8.212;2024-01-11T00:15:39;39.38;;;21.90;;
2486;SDS011;1254;49.144;8.212;2024-01-11T00:18:08;46.05;;;20.45;;
2486;SDS011;1254;49.144;8.212;2024-01-11T00:20:36;49.45;;;24.42;;
2486;SDS011;1254;49.144;8.212;2024-01-11T00:23:04;41.00;;;22.65;;
2486;SDS011;1254;49.144;8.212;2024-01-11T00:25:32;36.78;;;20.63;;
2486;SDS011;1254;49.144;8.212;2024-01-11T00:28:02;40.55;;;23.52;;
2486;SDS011;1254;49.144;8.212;2024-01-11T00:30:31;54.08;;;25.02;;
2486;SDS011;1254;49.144;8.212;2024-01-11T00:32:59;40.83;;;21.27;;
2486;SDS011;1254;49.144;8.212;2024-01-11T00:35:27;67.18;;;24.50;;
2486;SDS011;1254;49.144;8.212;2024-01-11T00:37:55;47.80;;;21.70;;
2486;SDS011;1254;49.144;8.212;2024-01-11T00:40:24;36.05;;;20.10;;
2486;SDS011;1254;49.144;8.212;2024-01-11T00:42:52;62.28;;;24.08;;
2486;SDS011;1254;49.144;8.212;2024-01-11T00:45:21;49.22;;;22.10;;
2486;SDS011;1254;49.144;8.212;2024-01-11T00:47:50;44.88;;;21.70;;
2486;SDS011;1254;49.144;8.212;2024-01-11T00:50:18;51.03;;;24.08;;
2486;SDS011;1254;49.144;8.212;2024-01-11T00:52:46;57.08;;;23.85;;
2486;SDS011;1254;49.144;8.212;2024-01-11T00:55:14;54.88;;;23.80;;
2486;SDS011;1254;49.144;8.212;2024-01-11T00:57:44;45.17;;;20.98;;
2486;SDS011;1254;49.144;8.212;2024-01-11T01:00:13;37.63;;;21.02;;
2486;SDS011;1254;49.144;8.212;2024-01-11T01:02:42;49.88;;;24.85;;
2486;SDS011;1254;49.144;8.212;2024-01-11T01:05:12;44.47;;;21.92;;
2486;SDS011;1254;49.144;8.212;2024-01-11T01:07:40;63.63;;;26.83;;
2486;SDS011;1254;49.144;8.212;2024-01-11T01:10:08;52.75;;;19.40;;
2486;SDS011;1254;49.144;8.212;2024-01-11T01:12:37;50.15;;;23.42;;
2486;SDS011;1254;49.144;8.212;2024-01-11T01:15:05;70.65;;;26.80;;
2486;SDS011;1254;49.144;8.212;2024-01-11T01:17:34;53.60;;;20.70;;
2486;SDS011;1254;49.144;8.212;2024-01-11T01:20:04;56.55;;;23.63;;
2486;SDS011;1254;49.144;8.212;2024-01-11T01:22:32;46.92;;;21.08;;
2486;SDS011;1254;49.144;8.212;2024-01-11T01:25:01;57.40;;;25.95;;
2486;SDS011;1254;49.144;8.212;2024-01-11T01:27:29;53.25;;;22.40;;
2486;SDS011;1254;49.144;8.212;2024-01-11T01:29:57;41.78;;;21.77;;
2486;SDS011;1254;49.144;8.212;2024-01-11T01:32:25;56.65;;;23.90;;
2486;SDS011;1254;49.144;8.212;2024-01-11T01:34:54;41.60;;;19.55;;
2486;SDS011;1254;49.144;8.212;2024-01-11T01:37:23;42.50;;;21.45;;
2486;SDS011;1254;49.144;8.212;2024-01-11T01:39:52;48.80;;;24.13;;
2486;SDS011;1254;49.144;8.212;2024-01-11T01:42:20;37.03;;;18.73;;
2486;SDS011;1254;49.144;8.212;2024-01-11T01:44:48;51.30;;;21.33;;
2486;SDS011;1254;49.144;8.212;2024-01-11T01:47:16;56.03;;;22.00;;
2486;SDS011;1254;49.144;8.212;2024-01-11T01:49:45;54.60;;;22.30;;
2486;SDS011;1254;49.144;8.212;2024-01-11T01:52:14;40.95;;;20.67;;
2486;SDS011;1254;49.144;8.212;2024-01-11T01:54:45;39.72;;;22.00;;
2486;SDS011;1254;49.144;8.212;2024-01-11T01:57:13;46.35;;;22.92;;
2486;SDS011;1254;49.144;8.212;2024-01-11T01:59:43;49.80;;;20.83;;
2486;SDS011;1254;49.144;8.212;2024-01-11T02:02:11;45.60;;;21.15;;
2486;SDS011;1254;49.144;8.212;2024-01-11T02:04:40;50.08;;;22.00;;
2486;SDS011;1254;49.144;8.212;2024-01-11T02:07:08;51.90;;;21.35;;
2486;SDS011;1254;49.144;8.212;2024-01-11T02:09:36;40.75;;;21.02;;
2486;SDS011;1254;49.144;8.212;2024-01-11T02:12:06;41.78;;;21.42;;
2486;SDS011;1254;49.144;8.212;2024-01-11T02:14:37;43.15;;;19.88;;
2486;SDS011;1254;49.144;8.212;2024-01-11T02:17:05;46.17;;;19.85;;
2486;SDS011;1254;49.144;8.212;2024-01-11T02:19:33;40.75;;;22.70;;
2486;SDS011;1254;49.144;8.212;2024-01-11T02:22:04;43.67;;;20.08;;
2486;SDS011;1254;49.144;8.212;2024-01-11T02:24:34;42.53;;;21.98;;
2486;SDS011;1254;49.144;8.212;2024-01-11T02:27:03;38.17;;;19.88;;
2486;SDS011;1254;49.144;8.212;2024-01-11T02:29:32;42.67;;;21.15;;
2486;SDS011;1254;49.144;8.212;2024-01-11T02:32:00;42.85;;;20.98;;
2486;SDS011;1254;49.144;8.212;2024-01-11T02:34:30;45.63;;;21.13;;
2486;SDS011;1254;49.144;8.212;2024-01-11T02:36:59;45.97;;;22.08;;
2486;SDS011;1254;49.144;8.212;2024-01-11T02:39:27;33.40;;;17.73;;
2486;SDS011;1254;49.144;8.212;2024-01-11T02:41:57;43.55;;;23.08;;
2486;SDS011;1254;49.144;8.212;2024-01-11T02:44:25;35.70;;;19.17;;
2486;SDS011;1254;49.144;8.212;2024-01-11T02:46:53;42.45;;;20.77;;
2486;SDS011;1254;49.144;8.212;2024-01-11T02:49:22;40.45;;;18.73;;
2486;SDS011;1254;49.144;8.212;2024-01-11T02:51:50;37.72;;;18.65;;
2486;SDS011;1254;49.144;8.212;2024-01-11T02:54:18;40.35;;;21.92;;
2486;SDS011;1254;49.144;8.212;2024-01-11T02:56:46;45.42;;;21.88;;
2486;SDS011;1254;49.144;8.212;2024-01-11T02:59:16;42.75;;;21.10;;
2486;SDS011;1254;49.144;8.212;2024-01-11T03:01:44;36.67;;;20.20;;
2486;SDS011;1254;49.144;8.212;2024-01-11T03:04:12;44.83;;;23.13;;
2486;SDS011;1254;49.144;8.212;2024-01-11T03:06:45;42.13;;;20.83;;
2486;SDS011;1254;49.144;8.212;2024-01-11T03:09:13;43.63;;;22.42;;
2486;SDS011;1254;49.144;8.212;2024-01-11T03:11:41;37.47;;;20.45;;
2486;SDS011;1254;49.144;8.212;2024-01-11T03:14:09;45.00;;;20.80;;
2486;SDS011;1254;49.144;8.212;2024-01-11T03:16:39;32.58;;;18.40;;
2486;SDS011;1254;49.144;8.212;2024-01-11T03:19:07;47.08;;;21.70;;
2486;SDS011;1254;49.144;8.212;2024-01-11T03:21:40;39.70;;;20.90;;
2486;SDS011;1254;49.144;8.212;2024-01-11T03:24:08;41.08;;;20.75;;
2486;SDS011;1254;49.144;8.212;2024-01-11T03:26:36;43.45;;;22.20;;
2486;SDS011;1254;49.144;8.212;2024-01-11T03:29:04;39.40;;;20.70;;
2486;SDS011;1254;49.144;8.212;2024-01-11T03:31:33;51.97;;;21.35;;
2486;SDS011;1254;49.144;8.212;2024-01-11T03:34:02;40.45;;;21.73;;
2486;SDS011;1254;49.144;8.212;2024-01-11T03:36:30;45.22;;;22.10;;
2486;SDS011;1254;49.144;8.212;2024-01-11T03:38:59;43.15;;;22.50;;
2486;SDS011;1254;49.144;8.212;2024-01-11T03:41:27;44.50;;;22.08;;
2486;SDS011;1254;49.144;8.212;2024-01-11T03:43:55;51.03;;;24.15;;
2486;SDS011;1254;49.144;8.212;2024-01-11T03:46:23;46.00;;;23.65;;
2486;SDS011;1254;49.144;8.212;2024-01-11T03:48:52;44.08;;;22.17;;
2486;SDS011;1254;49.144;8.212;2024-01-11T03:51:24;47.83;;;22.40;;
2486;SDS011;1254;49.144;8.212;2024-01-11T03:53:52;42.88;;;22.27;;
2486;SDS011;1254;49.144;8.212;2024-01-11T03:56:20;36.33;;;21.60;;
2486;SDS011;1254;49.144;8.212;2024-01-11T03:58:49;45.08;;;22.30;;
2486;SDS011;1254;49.144;8.212;2024-01-11T04:01:17;44.05;;;20.48;;
2486;SDS011;1254;49.144;8.212;2024-01-11T04:03:45;42.30;;;21.30;;
2486;SDS011;1254;49.144;8.212;2024-01-11T04:06:18;39.30;;;21.17;;
2486;SDS011;1254;49.144;8.212;2024-01-11T04:08:49;40.60;;;22.88;;
2486;SDS011;1254;49.144;8.212;2024-01-11T04:11:18;39.45;;;21.95;;
2486;SDS011;1254;49.144;8.212;2024-01-11T04:13:46;47.42;;;21.35;;
2486;SDS011;1254;49.144;8.212;2024-01-11T04:16:15;52.88;;;23.50;;
2486;SDS011;1254;49.144;8.212;2024-01-11T04:18:43;47.40;;;21.70;;
2486;SDS011;1254;49.144;8.212;2024-01-11T04:21:19;46.45;;;21.90;;
2486;SDS011;1254;49.144;8.212;2024-01-11T04:23:49;43.88;;;21.98;;
2486;SDS011;1254;49.144;8.212;2024-01-11T04:26:18;51.20;;;23.75;;
2486;SDS011;1254;49.144;8.212;2024-01-11T04:28:46;51.85;;;24.15;;
2486;SDS011;1254;49.144;8.212;2024-01-11T04:31:14;54.17;;;22.58;;
2486;SDS011;1254;49.144;8.212;2024-01-11T04:33:43;49.75;;;22.83;;
2486;SDS011;1254;49.144;8.212;2024-01-11T04:36:12;48.88;;;24.25;;
2486;SDS011;1254;49.144;8.212;2024-01-11T04:38:40;45.10;;;23.17;;
2486;SDS011;1254;49.144;8.212;2024-01-11T04:41:10;52.70;;;25.63;;
2486;SDS011;1254;49.144;8.212;2024-01-11T04:43:38;44.30;;;23.52;;
2486;SDS011;1254;49.144;8.212;2024-01-11T04:46:13;41.97;;;21.50;;
2486;SDS011;1254;49.144;8.212;2024-01-11T04:48:41;42.33;;;21.58;;
2486;SDS011;1254;49.144;8.212;2024-01-11T04:51:10;53.53;;;23.58;;
2486;SDS011;1254;49.144;8.212;2024-01-11T04:53:41;47.47;;;23.05;;
2486;SDS011;1254;49.144;8.212;2024-01-11T04:56:12;45.22;;;23.75;;
2486;SDS011;1254;49.144;8.212;2024-01-11T04:58:41;48.25;;;22.40;;
2486;SDS011;1254;49.144;8.212;2024-01-11T05:01:11;32.00;;;18.90;;
2486;SDS011;1254;49.144;8.212;2024-01-11T05:03:40;43.72;;;20.90;;
2486;SDS011;1254;49.144;8.212;2024-01-11T05:06:08;43.95;;;22.40;;
2486;SDS011;1254;49.144;8.212;2024-01-11T05:08:36;44.53;;;22.92;;
2486;SDS011;1254;49.144;8.212;2024-01-11T05:11:05;47.08;;;22.70;;
2486;SDS011;1254;49.144;8.212;2024-01-11T05:13:34;44.88;;;22.23;;
2486;SDS011;1254;49.144;8.212;2024-01-11T05:16:03;45.65;;;22.17;;
2486;SDS011;1254;49.144;8.212;2024-01-11T05:18:31;44.72;;;21.95;;
2486;SDS011;1254;49.144;8.212;2024-01-11T05:20:59;45.83;;;20.95;;
2486;SDS011;1254;49.144;8.212;2024-01-11T05:23:27;42.35;;;22.60;;
2486;SDS011;1254;49.144;8.212;2024-01-11T05:25:56;43.00;;;21.13;;
2486;SDS011;1254;49.144;8.212;2024-01-11T05:28:24;43.90;;;20.73;;
2486;SDS011;1254;49.144;8.212;2024-01-11T05:30:54;50.00;;;23.35;;
2486;SDS011;1254;49.144;8.212;2024-01-11T05:33:22;48.13;;;21.05;;
2486;SDS011;1254;49.144;8.212;2024-01-11T05:35:50;42.10;;;21.00;;
2486;SDS011;1254;49.144;8.212;2024-01-11T05:38:19;41.58;;;19.45;;
2486;SDS011;1254;49.144;8.212;2024-01-11T05:40:47;41.25;;;21.25;;
2486;SDS011;1254;49.144;8.212;2024-01-11T05:43:16;27.67;;;15.63;;
2486;SDS011;1254;49.144;8.212;2024-01-11T05:45:44;47.30;;;22.88;;
2486;SDS011;1254;49.144;8.212;2024-01-11T05:48:14;49.33;;;24.13;;
2486;SDS011;1254;49.144;8.212;2024-01-11T05:50:43;48.58;;;22.17;;
2486;SDS011;1254;49.144;8.212;2024-01-11T05:53:11;45.97;;;23.02;;
2486;SDS011;1254;49.144;8.212;2024-01-11T05:55:39;64.03;;;27.85;;
2486;SDS011;1254;49.144;8.212;2024-01-11T05:58:07;43.63;;;21.25;;
2486;SDS011;1254;49.144;8.212;2024-01-11T06:00:36;49.10;;;24.30;;
2486;SDS011;1254;49.144;8.212;2024-01-11T06:03:04;49.05;;;23.48;;
2486;SDS011;1254;49.144;8.212;2024-01-11T06:05:34;44.78;;;23.45;;
2486;SDS011;1254;49.144;8.212;2024-01-11T06:08:02;53.03;;;25.15;;
2486;SDS011;1254;49.144;8.212;2024-01-11T06:10:31;47.35;;;24.00;;
2486;SDS011;1254;49.144;8.212;2024-01-11T06:12:59;55.00;;;24.65;;
2486;SDS011;1254;49.144;8.212;2024-01-11T06:15:27;44.85;;;23.40;;
2486;SDS011;1254;49.144;8.212;2024-01-11T06:17:56;45.72;;;21.95;;
2486;SDS011;1254;49.144;8.212;2024-01-11T06:20:24;48.45;;;22.10;;
2486;SDS011;1254;49.144;8.212;2024-01-11T06:22:53;45.92;;;23.45;;
2486;SDS011;1254;49.144;8.212;2024-01-11T06:25:22;41.10;;;22.27;;
2486;SDS011;1254;49.144;8.212;2024-01-11T06:27:50;46.72;;;23.15;;
2486;SDS011;1254;49.144;8.212;2024-01-11T06:30:18;49.80;;;23.48;;
2486;SDS011;1254;49.144;8.212;2024-01-11T06:32:47;46.47;;;21.23;;
2486;SDS011;1254;49.144;8.212;2024-01-11T06:35:15;57.67;;;24.63;;
2486;SDS011;1254;49.144;8.212;2024-01-11T06:37:43;45.67;;;22.33;;
2486;SDS011;1254;49.144;8.212;2024-01-11T06:40:13;49.22;;;23.05;;
2486;SDS011;1254;49.144;8.212;2024-01-11T06:42:41;50.05;;;23.40;;
2486;SDS011;1254;49.144;8.212;2024-01-11T06:45:09;39.40;;;19.23;;
2486;SDS011;1254;49.144;8.212;2024-01-11T06:47:37;46.47;;;21.50;;
2486;SDS011;1254;49.144;8.212;2024-01-11T06:50:06;42.67;;;21.30;;
2486;SDS011;1254;49.144;8.212;2024-01-11T06:52:34;43.30;;;21.15;;
2486;SDS011;1254;49.144;8.212;2024-01-11T06:55:03;45.47;;;23.40;;
2486;SDS011;1254;49.144;8.212;2024-01-11T06:57:33;35.35;;;18.48;;
2486;SDS011;1254;49.144;8.212;2024-01-11T07:00:02;54.85;;;22.55;;
2486;SDS011;1254;49.144;8.212;2024-01-11T07:02:30;50.03;;;22.63;;
2486;SDS011;1254;49.144;8.212;2024-01-11T07:04:58;50.58;;;21.65;;
2486;SDS011;1254;49.144;8.212;2024-01-11T07:07:27;40.08;;;20.40;;
2486;SDS011;1254;49.144;8.212;2024-01-11T07:09:55;42.47;;;20.15;;
2486;SDS011;1254;49.144;8.212;2024-01-11T07:12:23;44.30;;;20.52;;
2486;SDS011;1254;49.144;8.212;2024-01-11T07:14:53;33.80;;;17.58;;
2486;SDS011;1254;49.144;8.212;2024-01-11T07:17:21;51.08;;;22.92;;
2486;SDS011;1254;49.144;8.212;2024-01-11T07:19:49;60.42;;;21.75;;
2486;SDS011;1254;49.144;8.212;2024-01-11T07:22:18;46.28;;;20.67;;
2486;SDS011;1254;49.144;8.212;2024-01-11T07:24:46;46.97;;;19.70;;
2486;SDS011;1254;49.144;8.212;2024-01-11T07:27:14;49.25;;;23.10;;
2486;SDS011;1254;49.144;8.212;2024-01-11T07:29:42;55.53;;;22.63;;
2486;SDS011;1254;49.144;8.212;2024-01-11T07:32:12;44.63;;;18.92;;
2486;SDS011;1254;49.144;8.212;2024-01-11T07:34:40;65.15;;;23.35;;
2486;SDS011;1254;49.144;8.212;2024-01-11T07:37:08;42.10;;;20.90;;
2486;SDS011;1254;49.144;8.212;2024-01-11T07:39:36;51.47;;;22.95;;
2486;SDS011;1254;49.144;8.212;2024-01-11T07:42:05;43.65;;;20.88;;
2486;SDS011;1254;49.144;8.212;2024-01-11T07:44:34;58.00;;;27.52;;
2486;SDS011;1254;49.144;8.212;2024-01-11T07:47:02;49.67;;;23.60;;
2486;SDS011;1254;49.144;8.212;2024-01-11T07:49:31;51.77;;;27.53;;
2486;SDS011;1254;49.144;8.212;2024-01-11T07:52:00;55.55;;;31.15;;
2486;SDS011;1254;49.144;8.212;2024-01-11T07:54:28;49.08;;;25.33;;
2486;SDS011;1254;49.144;8.212;2024-01-11T07:56:57;45.08;;;21.75;;
2486;SDS011;1254;49.144;8.212;2024-01-11T07:59:25;42.72;;;21.23;;
2486;SDS011;1254;49.144;8.212;2024-01-11T08:01:53;47.58;;;23.40;;
2486;SDS011;1254;49.144;8.212;2024-01-11T08:04:21;42.22;;;22.10;;
2486;SDS011;1254;49.144;8.212;2024-01-11T08:06:51;43.97;;;21.67;;
2486;SDS011;1254;49.144;8.212;2024-01-11T08:09:19;48.97;;;23.17;;
2486;SDS011;1254;49.144;8.212;2024-01-11T08:11:48;43.83;;;21.83;;
2486;SDS011;1254;49.144;8.212;2024-01-11T08:14:16;43.72;;;22.88;;
2486;SDS011;1254;49.144;8.212;2024-01-11T08:16:44;43.45;;;21.83;;
2486;SDS011;1254;49.144;8.212;2024-01-11T08:19:12;20.77;;;11.38;;
2486;SDS011;1254;49.144;8.212;2024-01-11T08:21:41;50.65;;;23.65;;
2486;SDS011;1254;49.144;8.212;2024-01-11T08:24:11;38.53;;;19.83;;
2486;SDS011;1254;49.144;8.212;2024-01-11T08:26:39;49.70;;;24.77;;
2486;SDS011;1254;49.144;8.212;2024-01-11T08:29:07;38.97;;;21.27;;
2486;SDS011;1254;49.144;8.212;2024-01-11T08:31:36;41.00;;;19.77;;
2486;SDS011;1254;49.144;8.212;2024-01-11T08:34:04;56.55;;;23.70;;
2486;SDS011;1254;49.144;8.212;2024-01-11T08:36:32;50.38;;;23.05;;
2486;SDS011;1254;49.144;8.212;2024-01-11T08:39:01;40.63;;;20.50;;
2486;SDS011;1254;49.144;8.212;2024-01-11T08:41:33;42.13;;;19.40;;
2486;SDS011;1254;49.144;8.212;2024-01-11T08:44:01;55.83;;;23.50;;
2486;SDS011;1254;49.144;8.212;2024-01-11T08:46:31;47.65;;;23.65;;
2486;SDS011;1254;49.144;8.212;2024-01-11T08:49:00;52.25;;;26.42;;
2486;SDS011;1254;49.144;8.212;2024-01-11T08:51:29;54.13;;;25.00;;
2486;SDS011;1254;49.144;8.212;2024-01-11T08:53:58;50.50;;;23.40;;
2486;SDS011;1254;49.144;8.212;2024-01-11T08:56:26;52.33;;;22.45;;
2486;SDS011;1254;49.144;8.212;2024-01-11T08:58:56;57.90;;;25.60;;
2486;SDS011;1254;49.144;8.212;2024-01-11T09:01:25;46.13;;;24.40;;
2486;SDS011;1254;49.144;8.212;2024-01-11T09:03:53;55.92;;;24.80;;
2486;SDS011;1254;49.144;8.212;2024-01-11T09:06:21;46.45;;;23.38;;
2486;SDS011;1254;49.144;8.212;2024-01-11T09:08:49;48.70;;;26.23;;
2486;SDS011;1254;49.144;8.212;2024-01-11T09:11:18;47.60;;;23.27;;
2486;SDS011;1254;49.144;8.212;2024-01-11T09:13:46;56.17;;;25.73;;
2486;SDS011;1254;49.144;8.212;2024-01-11T09:16:16;56.03;;;22.90;;
2486;SDS011;1254;49.144;8.212;2024-01-11T09:18:44;40.42;;;20.58;;
2486;SDS011;1254;49.144;8.212;2024-01-11T09:21:12;46.33;;;21.90;;
2486;SDS011;1254;49.144;8.212;2024-01-11T09:23:43;43.90;;;23.27;;
2486;SDS011;1254;49.144;8.212;2024-01-11T09:26:12;46.83;;;25.52;;
2486;SDS011;1254;49.144;8.212;2024-01-11T09:28:40;55.13;;;26.10;;
2486;SDS011;1254;49.144;8.212;2024-01-11T09:31:08;57.58;;;27.85;;
2486;SDS011;1254;49.144;8.212;2024-01-11T09:33:38;50.40;;;23.88;;
2486;SDS011;1254;49.144;8.212;2024-01-11T09:36:08;54.80;;;27.45;;
2486;SDS011;1254;49.144;8.212;2024-01-11T09:38:36;62.65;;;27.33;;
2486;SDS011;1254;49.144;8.212;2024-01-11T09:41:06;57.92;;;27.63;;
2486;SDS011;1254;49.144;8.212;2024-01-11T09:43:34;52.63;;;25.00;;
2486;SDS011;1254;49.144;8.212;2024-01-11T09:46:03;53.72;;;27.73;;
2486;SDS011;1254;49.144;8.212;2024-01-11T09:48:32;64.05;;;25.80;;
2486;SDS011;1254;49.144;8.212;2024-01-11T09:51:02;60.63;;;27.05;;
2486;SDS011;1254;49.144;8.212;2024-01-11T09:53:32;58.28;;;26.77;;
2486;SDS011;1254;49.144;8.212;2024-01-11T09:56:02;51.50;;;25.70;;
2486;SDS011;1254;49.144;8.212;2024-01-11T09:58:34;48.05;;;26.85;;
2486;SDS011;1254;49.144;8.212;2024-01-11T10:01:03;49.22;;;26.13;;
2486;SDS011;1254;49.144;8.212;2024-01-11T10:03:35;48.03;;;24.08;;
2486;SDS011;1254;49.144;8.212;2024-01-11T10:06:05;51.03;;;26.77;;
2486;SDS011;1254;49.144;8.212;2024-01-11T10:08:34;53.05;;;25.80;;
2486;SDS011;1254;49.144;8.212;2024-01-11T10:11:02;45.35;;;25.83;;
2486;SDS011;1254;49.144;8.212;2024-01-11T10:13:31;51.35;;;26.30;;
2486;SDS011;1254;49.144;8.212;2024-01-11T10:16:04;53.58;;;25.33;;
2486;SDS011;1254;49.144;8.212;2024-01-11T10:18:33;44.28;;;26.33;;
2486;SDS011;1254;49.144;8.212;2024-01-11T10:21:01;42.03;;;22.83;;
2486;SDS011;1254;49.144;8.212;2024-01-11T10:23:31;57.83;;;27.98;;
2486;SDS011;1254;49.144;8.212;2024-01-11T10:26:00;51.55;;;27.45;;
2486;SDS011;1254;49.144;8.212;2024-01-11T10:28:29;59.20;;;27.77;;
2486;SDS011;1254;49.144;8.212;2024-01-11T10:30:58;52.40;;;28.90;;
2486;SDS011;1254;49.144;8.212;2024-01-11T10:33:26;45.63;;;25.40;;
2486;SDS011;1254;49.144;8.212;2024-01-11T10:35:54;41.17;;;25.33;;
2486;SDS011;1254;49.144;8.212;2024-01-11T10:38:22;46.05;;;26.33;;
2486;SDS011;1254;49.144;8.212;2024-01-11T10:40:54;48.10;;;25.38;;
2486;SDS011;1254;49.144;8.212;2024-01-11T10:43:23;51.58;;;28.27;;
2486;SDS011;1254;49.144;8.212;2024-01-11T10:45:52;49.05;;;25.67;;
2486;SDS011;1254;49.144;8.212;2024-01-11T10:48:23;54.35;;;27.13;;
2486;SDS011;1254;49.144;8.212;2024-01-11T10:50:54;47.00;;;27.55;;
2486;SDS011;1254;49.144;8.212;2024-01-11T10:53:25;52.65;;;27.30;;
2486;SDS011;1254;49.144;8.212;2024-01-11T10:55:55;53.60;;;28.55;;
2486;SDS011;1254;49.144;8.212;2024-01-11T10:58:25;48.95;;;27.60;;
2486;SDS011;1254;49.144;8.212;2024-01-11T11:00:54;41.20;;;27.05;;
2486;SDS011;1254;49.144;8.212;2024-01-11T11:03:23;50.40;;;30.05;;
2486;SDS011;1254;49.144;8.212;2024-01-11T11:05:52;48.20;;;28.48;;
2486;SDS011;1254;49.144;8.212;2024-01-11T11:08:22;60.67;;;34.72;;
2486;SDS011;1254;49.144;8.212;2024-01-11T11:10:56;55.40;;;33.00;;
2486;SDS011;1254;49.144;8.212;2024-01-11T11:13:24;53.67;;;32.92;;
2486;SDS011;1254;49.144;8.212;2024-01-11T11:15:53;47.22;;;32.60;;
2486;SDS011;1254;49.144;8.212;2024-01-11T11:18:23;44.63;;;29.73;;
2486;SDS011;1254;49.144;8.212;2024-01-11T11:20:52;47.70;;;31.45;;
2486;SDS011;1254;49.144;8.212;2024-01-11T11:23:20;45.33;;;33.42;;
2486;SDS011;1254;49.144;8.212;2024-01-11T11:25:48;52.47;;;34.30;;
2486;SDS011;1254;49.144;8.212;2024-01-11T11:28:18;49.03;;;33.30;;
2486;SDS011;1254;49.144;8.212;2024-01-11T11:30:48;51.42;;;34.13;;
2486;SDS011;1254;49.144;8.212;2024-01-11T11:33:18;47.30;;;33.53;;
2486;SDS011;1254;49.144;8.212;2024-01-11T11:35:47;45.63;;;33.80;;
2486;SDS011;1254;49.144;8.212;2024-01-11T11:38:18;46.95;;;32.97;;
2486;SDS011;1254;49.144;8.212;2024-01-11T11:40:47;47.03;;;33.35;;
2486;SDS011;1254;49.144;8.212;2024-01-11T11:43:15;47.33;;;31.70;;
2486;SDS011;1254;49.144;8.212;2024-01-11T11:45:46;48.60;;;34.40;;
2486;SDS011;1254;49.144;8.212;2024-01-11T11:51:02;46.60;;;33.72;;
2486;SDS011;1254;49.144;8.212;2024-01-11T11:53:35;45.15;;;32.50;;
2486;SDS011;1254;49.144;8.212;2024-01-11T11:56:03;50.65;;;35.03;;
2486;SDS011;1254;49.144;8.212;2024-01-11T11:58:33;50.20;;;33.72;;
2486;SDS011;1254;49.144;8.212;2024-01-11T12:01:03;54.10;;;33.90;;
2486;SDS011;1254;49.144;8.212;2024-01-11T12:03:32;50.10;;;34.90;;
2486;SDS011;1254;49.144;8.212;2024-01-11T12:06:02;44.28;;;33.33;;
2486;SDS011;1254;49.144;8.212;2024-01-11T12:08:30;41.10;;;32.70;;
2486;SDS011;1254;49.144;8.212;2024-01-11T12:10:58;43.42;;;32.65;;
2486;SDS011;1254;49.144;8.212;2024-01-11T12:13:27;42.60;;;32.72;;
2486;SDS011;1254;49.144;8.212;2024-01-11T12:15:57;47.22;;;36.30;;
2486;SDS011;1254;49.144;8.212;2024-01-11T12:18:26;44.17;;;32.67;;
2486;SDS011;1254;49.144;8.212;2024-01-11T12:20:54;44.10;;;34.13;;
2486;SDS011;1254;49.144;8.212;2024-01-11T12:23:23;48.95;;;36.72;;
2486;SDS011;1254;49.144;8.212;2024-01-11T12:25:51;46.00;;;33.92;;
2486;SDS011;1254;49.144;8.212;2024-01-11T12:28:20;44.50;;;33.78;;
2486;SDS011;1254;49.144;8.212;2024-01-11T12:30:48;46.10;;;35.17;;
2486;SDS011;1254;49.144;8.212;2024-01-11T12:33:16;43.88;;;34.60;;
2486;SDS011;1254;49.144;8.212;2024-01-11T12:35:46;47.47;;;35.20;;
2486;SDS011;1254;49.144;8.212;2024-01-11T12:38:14;50.58;;;38.85;;
2486;SDS011;1254;49.144;8.212;2024-01-11T12:40:43;45.88;;;36.05;;
2486;SDS011;1254;49.144;8.212;2024-01-11T12:43:11;46.85;;;34.25;;
2486;SDS011;1254;49.144;8.212;2024-01-11T12:45:39;50.67;;;36.40;;
2486;SDS011;1254;49.144;8.212;2024-01-11T12:48:08;45.92;;;35.58;;
2486;SDS011;1254;49.144;8.212;2024-01-11T12:50:40;46.83;;;35.83;;
2486;SDS011;1254;49.144;8.212;2024-01-11T12:53:10;53.65;;;37.10;;
2486;SDS011;1254;49.144;8.212;2024-01-11T12:55:44;48.20;;;34.95;;
2486;SDS011;1254;49.144;8.212;2024-01-11T12:58:12;43.85;;;34.47;;
2486;SDS011;1254;49.144;8.212;2024-01-11T13:00:41;46.03;;;35.33;;
2486;SDS011;1254;49.144;8.212;2024-01-11T13:03:09;43.05;;;35.72;;
2486;SDS011;1254;49.144;8.212;2024-01-11T13:05:38;51.60;;;35.88;;
2486;SDS011;1254;49.144;8.212;2024-01-11T13:08:07;42.33;;;32.80;;
2486;SDS011;1254;49.144;8.212;2024-01-11T13:10:37;44.45;;;35.85;;
2486;SDS011;1254;49.144;8.212;2024-01-11T13:13:06;46.03;;;35.67;;
2486;SDS011;1254;49.144;8.212;2024-01-11T13:15:35;49.90;;;36.45;;
2486;SDS011;1254;49.144;8.212;2024-01-11T13:18:03;54.72;;;36.97;;
2486;SDS011;1254;49.144;8.212;2024-01-11T13:20:32;52.55;;;37.53;;
2486;SDS011;1254;49.144;8.212;2024-01-11T13:25:48;50.03;;;34.83;;
2486;SDS011;1254;49.144;8.212;2024-01-11T13:28:16;45.17;;;33.90;;
2486;SDS011;1254;49.144;8.212;2024-01-11T13:30:46;44.25;;;34.50;;
2486;SDS011;1254;49.144;8.212;2024-01-11T13:33:15;46.40;;;36.05;;
2486;SDS011;1254;49.144;8.212;2024-01-11T13:35:43;48.53;;;33.55;;
2486;SDS011;1254;49.144;8.212;2024-01-11T13:38:12;46.97;;;34.10;;
2486;SDS011;1254;49.144;8.212;2024-01-11T13:40:40;45.83;;;35.00;;
2486;SDS011;1254;49.144;8.212;2024-01-11T13:43:10;53.28;;;34.45;;
2486;SDS011;1254;49.144;8.212;2024-01-11T13:45:38;44.08;;;31.83;;
2486;SDS011;1254;49.144;8.212;2024-01-11T13:48:07;43.35;;;33.75;;
2486;SDS011;1254;49.144;8.212;2024-01-11T13:50:35;43.55;;;32.53;;
2486;SDS011;1254;49.144;8.212;2024-01-11T13:53:03;46.05;;;31.30;;
2486;SDS011;1254;49.144;8.212;2024-01-11T13:55:32;44.70;;;32.38;;
2486;SDS011;1254;49.144;8.212;2024-01-11T13:58:03;50.90;;;32.30;;
2486;SDS011;1254;49.144;8.212;2024-01-11T14:00:33;45.95;;;32.50;;
2486;SDS011;1254;49.144;8.212;2024-01-11T14:03:02;44.05;;;32.08;;
2486;SDS011;1254;49.144;8.212;2024-01-11T14:05:31;59.88;;;31.15;;
2486;SDS011;1254;49.144;8.212;2024-01-11T14:07:59;51.10;;;34.17;;
2486;SDS011;1254;49.144;8.212;2024-01-11T14:10:31;45.35;;;30.73;;
2486;SDS011;1254;49.144;8.212;2024-01-11T14:12:59;45.25;;;29.45;;
2486;SDS011;1254;49.144;8.212;2024-01-11T14:15:28;42.50;;;31.02;;
2486;SDS011;1254;49.144;8.212;2024-01-11T14:17:58;45.60;;;30.83;;
2486;SDS011;1254;49.144;8.212;2024-01-11T14:20:26;49.45;;;32.35;;
2486;SDS011;1254;49.144;8.212;2024-01-11T14:22:54;42.50;;;29.55;;
2486;SDS011;1254;49.144;8.212;2024-01-11T14:25:23;43.92;;;32.22;;
2486;SDS011;1254;49.144;8.212;2024-01-11T14:27:52;44.47;;;30.40;;
2486;SDS011;1254;49.144;8.212;2024-01-11T14:30:20;37.22;;;29.35;;
2486;SDS011;1254;49.144;8.212;2024-01-11T14:32:48;50.05;;;35.05;;
2486;SDS011;1254;49.144;8.212;2024-01-11T14:35:18;42.15;;;32.42;;
2486;SDS011;1254;49.144;8.212;2024-01-11T14:37:46;42.72;;;32.50;;
2486;SDS011;1254;49.144;8.212;2024-01-11T14:40:15;42.88;;;34.58;;
2486;SDS011;1254;49.144;8.212;2024-01-11T14:42:43;42.47;;;32.85;;
2486;SDS011;1254;49.144;8.212;2024-01-11T14:45:12;43.85;;;32.83;;
2486;SDS011;1254;49.144;8.212;2024-01-11T14:47:40;42.75;;;33.83;;
2486;SDS011;1254;49.144;8.212;2024-01-11T14:50:08;56.15;;;36.63;;
2486;SDS011;1254;49.144;8.212;2024-01-11T14:52:38;48.30;;;34.15;;
2486;SDS011;1254;49.144;8.212;2024-01-11T14:55:07;39.78;;;32.50;;
2486;SDS011;1254;49.144;8.212;2024-01-11T14:57:36;51.85;;;33.55;;
2486;SDS011;1254;49.144;8.212;2024-01-11T15:00:04;42.45;;;32.35;;
2486;SDS011;1254;49.144;8.212;2024-01-11T15:02:34;46.90;;;33.53;;